Time;durP1;ratioP1;P1;durP2;ratioP2;P2;SDS_P1;SDS_P2;PMS_P1;PMS_P2;Temp;Humidity;BMP_temperature;BMP_pressure;BME280_temperature;BME280_humidity;BME280_pressure;Samples;Min_cycle;Max_cycle;Signal;HPM_P1;HPM_P2
2022/12/05 00:01:41;;;;;;;102.93;26.02;;;;;;;3.74;96.06;101252.03;5059861;27;20419;-72
2022/12/05 00:04:09;;;;;;;87.60;24.15;;;;;;;3.58;95.65;101252.31;5068446;28;20048;-72
2022/12/05 00:06:37;;;;;;;148.57;27.02;;;;;;;3.65;96.47;101243.56;5058987;28;20044;-72
2022/12/05 00:09:04;;;;;;;77.55;22.98;;;;;;;3.59;96.67;101249.69;5068727;28;20047;-72
2022/12/05 00:11:33;;;;;;;108.90;24.60;;;;;;;3.78;95.62;101247.66;5068599;28;20040;-74
2022/12/05 00:14:01;;;;;;;104.50;24.45;;;;;;;4.11;94.37;101241.91;5044415;28;20066;-73
2022/12/05 00:16:30;;;;;;;90.32;24.92;;;;;;;4.01;94.31;101245.56;5028954;28;20037;-73
2022/12/05 00:18:59;;;;;;;96.90;24.42;;;;;;;3.90;94.84;101243.16;5035213;28;20049;-73
2022/12/05 00:21:27;;;;;;;116.40;25.58;;;;;;;3.96;94.44;101239.59;5018400;28;20045;-73
2022/12/05 00:23:56;;;;;;;88.30;23.60;;;;;;;3.77;95.40;101241.63;5032428;28;20056;-73
2022/12/05 00:26:23;;;;;;;85.18;23.50;;;;;;;3.62;96.76;101241.03;5040488;28;20044;-72
2022/12/05 00:28:50;;;;;;;92.13;24.55;;;;;;;3.85;95.45;101242.34;5041605;28;20084;-72
2022/12/05 00:31:19;;;;;;;96.97;23.55;;;;;;;3.66;95.84;101245.28;5048120;28;20044;-73
2022/12/05 00:33:46;;;;;;;96.28;23.92;;;;;;;3.75;96.58;101232.16;5029342;28;20669;-73
2022/12/05 00:36:17;;;;;;;84.70;24.48;;;;;;;3.35;97.75;101232.78;5019616;28;20052;-73
2022/12/05 00:38:44;;;;;;;102.57;24.45;;;;;;;3.85;96.37;101238.91;5031292;28;20052;-73
2022/12/05 00:41:12;;;;;;;86.20;24.20;;;;;;;3.72;96.55;101234.81;5032019;28;20045;-73
2022/12/05 00:43:39;;;;;;;81.47;22.88;;;;;;;3.79;96.14;101234.69;5057249;28;20152;-72
2022/12/05 00:46:08;;;;;;;90.28;23.90;;;;;;;3.63;96.62;101222.84;5041395;28;20048;-73
2022/12/05 00:48:35;;;;;;;97.75;24.48;;;;;;;3.91;95.62;101229.31;5035869;28;20041;-73
2022/12/05 00:51:02;;;;;;;98.03;24.13;;;;;;;4.23;94.28;101233.94;5051820;28;20048;-74
2022/12/05 00:53:31;;;;;;;74.93;24.00;;;;;;;4.00;93.95;101232.59;5032762;28;20049;-73
2022/12/05 00:56:01;;;;;;;88.22;23.73;;;;;;;4.17;94.10;101230.59;5033114;28;20056;-73
2022/12/05 00:58:27;;;;;;;78.20;22.25;;;;;;;4.26;93.39;101236.47;5040141;28;20073;-73
2022/12/05 01:00:54;;;;;;;86.97;23.05;;;;;;;4.33;93.09;101232.00;5030879;28;20053;-74
2022/12/05 01:03:20;;;;;;;78.00;22.40;;;;;;;4.47;92.08;101236.97;5031576;28;20044;-74
2022/12/05 01:05:47;;;;;;;134.75;24.90;;;;;;;4.29;93.11;101240.72;5051815;28;20040;-73
2022/12/05 01:08:13;;;;;;;81.20;22.45;;;;;;;4.25;93.02;101233.91;5049729;28;20044;-73
2022/12/05 01:10:41;;;;;;;91.88;23.88;;;;;;;4.07;94.34;101231.63;5041342;28;20045;-73
2022/12/05 01:13:07;;;;;;;97.07;21.65;;;;;;;4.25;93.33;101228.72;5051335;28;20044;-73
2022/12/05 01:15:36;;;;;;;107.10;25.00;;;;;;;4.45;92.45;101231.78;5050424;28;20510;-73
2022/12/05 01:18:03;;;;;;;89.95;23.42;;;;;;;4.37;92.88;101225.88;5048468;28;20053;-73
2022/12/05 01:20:29;;;;;;;245.15;28.02;;;;;;;4.48;91.83;101221.34;5067717;28;20044;-72
2022/12/05 01:22:56;;;;;;;102.78;23.73;;;;;;;4.45;92.35;101226.59;5057363;28;20047;-73
2022/12/05 01:25:22;;;;;;;111.30;23.42;;;;;;;4.48;91.95;101223.06;5051301;28;20040;-73
2022/12/05 01:27:50;;;;;;;83.38;21.77;;;;;;;4.32;92.56;101225.13;5042584;28;20053;-73
2022/12/05 01:30:17;;;;;;;91.47;24.25;;;;;;;4.32;93.16;101225.13;5030471;28;20048;-73
2022/12/05 01:32:43;;;;;;;172.43;25.92;;;;;;;4.36;92.93;101219.00;5020786;28;20041;-73
2022/12/05 01:35:10;;;;;;;85.15;24.23;;;;;;;4.46;92.17;101223.13;5030947;28;20041;-73
2022/12/05 01:37:36;;;;;;;98.65;22.92;;;;;;;4.36;92.58;101219.81;5029439;28;20041;-73
2022/12/05 01:40:04;;;;;;;134.32;24.02;;;;;;;4.29;93.58;101220.81;5020696;28;20610;-73
2022/12/05 01:42:30;;;;;;;80.22;22.73;;;;;;;4.12;93.85;101229.81;5030989;28;20412;-74
2022/12/05 01:45:08;;;;;;;85.47;23.13;;;;;;;4.01;94.37;101230.00;5030733;28;20048;-73
2022/12/05 01:47:36;;;;;;;81.03;22.55;;;;;;;4.13;94.44;101232.38;5029488;28;20420;-73
2022/12/05 01:50:04;;;;;;;84.50;22.83;;;;;;;4.29;93.55;101233.81;5035832;28;20055;-73
2022/12/05 01:52:31;;;;;;;86.30;22.42;;;;;;;4.25;93.87;101233.91;5041298;27;20044;-73
2022/12/05 01:55:03;;;;;;;101.97;23.73;;;;;;;4.05;94.96;101233.41;5029274;28;20086;-73
2022/12/05 01:57:31;;;;;;;87.03;21.80;;;;;;;4.15;94.61;101240.13;5047046;28;20713;-73
2022/12/05 02:00:03;;;;;;;93.28;23.35;;;;;;;4.29;93.27;101230.34;5050320;28;20170;-73
2022/12/05 02:02:31;;;;;;;88.00;23.50;;;;;;;4.60;92.69;101230.66;5050273;28;20106;-73
2022/12/05 02:05:03;;;;;;;94.68;22.90;;;;;;;4.81;91.17;101230.22;5035774;28;20041;-73
2022/12/05 02:07:30;;;;;;;84.13;23.63;;;;;;;4.93;90.34;101236.91;5020078;28;20090;-73
2022/12/05 02:09:56;;;;;;;79.82;22.02;;;;;;;4.91;90.47;101235.19;5029408;28;20053;-73
2022/12/05 02:12:24;;;;;;;82.15;21.80;;;;;;;4.91;90.08;101242.97;5030319;28;20492;-73
2022/12/05 02:15:02;;;;;;;91.85;23.65;;;;;;;4.85;90.84;101242.25;5019675;28;20051;-73
2022/12/05 02:17:40;;;;;;;76.82;21.20;;;;;;;4.86;90.52;101233.59;5031120;28;20052;-73
2022/12/05 02:20:26;;;;;;;72.97;20.67;;;;;;;4.89;90.23;101239.56;5028006;28;20052;-73
2022/12/05 02:23:17;;;;;;;68.55;19.60;;;;;;;4.75;90.43;101239.00;5052666;28;20404;-73
2022/12/05 02:25:57;;;;;;;62.47;19.45;;;;;;;4.51;91.98;101242.06;5046060;28;20059;-73
2022/12/05 02:28:53;;;;;;;65.78;20.80;;;;;;;4.73;91.44;101234.72;5039228;28;20055;-74
2022/12/05 02:31:27;;;;;;;68.47;20.25;;;;;;;4.82;90.86;101240.59;5049819;28;20400;-74
2022/12/05 02:34:02;;;;;;;52.13;19.52;;;;;;;4.75;90.55;101241.59;5040698;28;20045;-74
2022/12/05 02:36:37;;;;;;;62.00;19.35;;;;;;;4.50;91.21;101237.78;5049261;28;20484;-75
2022/12/05 02:39:12;;;;;;;56.17;19.13;;;;;;;4.76;91.23;101232.94;5039062;28;20048;-75
2022/12/05 02:41:44;;;;;;;52.97;19.23;;;;;;;4.82;90.63;101226.72;5048006;28;20037;-75
2022/12/05 02:44:15;;;;;;;59.42;18.73;;;;;;;4.60;91.13;101231.50;5039224;28;20060;-75
2022/12/05 02:46:45;;;;;;;55.42;18.08;;;;;;;4.55;91.47;101227.25;5048944;28;20047;-75
2022/12/05 02:49:17;;;;;;;51.22;17.33;;;;;;;4.56;91.51;101226.38;5048660;28;20098;-76
2022/12/05 02:51:48;;;;;;;45.93;16.17;;;;;;;4.46;92.05;101220.53;5038935;28;20485;-76
2022/12/05 02:54:19;;;;;;;56.50;17.23;;;;;;;4.65;91.57;101224.50;5048296;28;20041;-75
2022/12/05 02:56:47;;;;;;;48.92;17.73;;;;;;;4.73;91.05;101214.78;5046576;28;20055;-75
2022/12/05 02:59:13;;;;;;;48.95;17.38;;;;;;;4.79;90.48;101216.41;5055486;28;20044;-75
2022/12/05 03:01:40;;;;;;;52.05;17.10;;;;;;;4.69;90.97;101213.13;5047482;28;20044;-75
2022/12/05 03:04:12;;;;;;;41.30;16.50;;;;;;;4.80;90.39;101208.56;5038872;28;20044;-75
2022/12/05 03:06:42;;;;;;;44.83;16.10;;;;;;;4.82;90.42;101204.22;5048605;28;20047;-76
2022/12/05 03:09:13;;;;;;;37.67;15.68;;;;;;;4.91;90.18;101210.97;5048279;28;20048;-76
2022/12/05 03:11:45;;;;;;;49.35;17.45;;;;;;;4.60;91.62;101205.53;5039049;28;20044;-75
2022/12/05 03:14:20;;;;;;;45.80;16.13;;;;;;;4.91;90.55;101205.78;5055055;28;20043;-75
2022/12/05 03:16:50;;;;;;;39.95;15.35;;;;;;;5.03;89.64;101215.03;5037689;28;20573;-75
2022/12/05 03:19:24;;;;;;;39.38;15.60;;;;;;;4.96;89.88;101214.31;5048398;28;20059;-75
2022/12/05 03:21:56;;;;;;;44.58;16.38;;;;;;;5.07;89.42;101209.72;5048874;28;20447;-75
2022/12/05 03:24:23;;;;;;;42.95;16.33;;;;;;;5.11;89.02;101207.91;5048720;28;20052;-75
2022/12/05 03:26:57;;;;;;;38.95;14.95;;;;;;;5.19;88.64;101206.00;5048068;28;20065;-75
2022/12/05 03:29:29;;;;;;;40.90;14.52;;;;;;;5.18;88.19;101204.28;5038476;28;20399;-75
2022/12/05 03:32:05;;;;;;;38.78;14.95;;;;;;;5.01;89.28;101211.63;5048407;28;20067;-75
2022/12/05 03:34:44;;;;;;;34.20;14.23;;;;;;;5.14;88.61;101218.25;5030790;28;20048;-75
2022/12/05 03:37:15;;;;;;;35.58;14.18;;;;;;;5.27;87.90;101212.75;5048817;28;20051;-75
2022/12/05 03:39:47;;;;;;;36.15;14.48;;;;;;;5.09;88.56;101212.31;5031806;28;20044;-75
2022/12/05 03:42:16;;;;;;;36.40;14.70;;;;;;;5.20;88.59;101207.72;5034504;28;20044;-75
2022/12/05 03:44:50;;;;;;;37.22;14.10;;;;;;;5.25;88.03;101211.06;5047691;28;20449;-75
2022/12/05 03:47:24;;;;;;;32.63;14.38;;;;;;;5.09;88.14;101210.56;5026460;28;20063;-75
2022/12/05 03:49:58;;;;;;;40.10;14.77;;;;;;;5.08;88.86;101210.59;5051754;27;20045;-75
2022/12/05 03:52:30;;;;;;;36.60;14.68;;;;;;;5.12;88.72;101214.84;5018050;28;20045;-75
2022/12/05 03:54:59;;;;;;;35.95;13.07;;;;;;;5.14;88.64;101207.84;5027902;28;20052;-75
2022/12/05 03:57:31;;;;;;;27.08;12.07;;;;;;;5.18;88.81;101228.56;5028423;28;20041;-75
2022/12/05 04:00:01;;;;;;;36.97;12.90;;;;;;;5.20;88.17;101212.94;5049626;28;20081;-75
2022/12/05 04:02:32;;;;;;;29.98;12.43;;;;;;;5.23;87.88;101218.06;5038186;28;20052;-75
2022/12/05 04:05:04;;;;;;;31.05;13.10;;;;;;;5.33;87.27;101219.56;5022431;28;20052;-75
2022/12/05 04:07:34;;;;;;;28.23;12.75;;;;;;;5.42;87.17;101216.75;5031911;28;20036;-75
2022/12/05 04:10:05;;;;;;;33.13;13.05;;;;;;;5.44;86.99;101219.31;5031568;28;20077;-75
2022/12/05 04:12:34;;;;;;;27.75;12.10;;;;;;;5.14;87.70;101223.44;5022310;28;20040;-75
2022/12/05 04:15:06;;;;;;;34.10;12.23;;;;;;;5.34;87.64;101223.88;5031343;28;20049;-75
2022/12/05 04:17:39;;;;;;;28.13;13.02;;;;;;;5.37;87.60;101216.88;5027970;28;20393;-76
2022/12/05 04:22:54;;;;;;;27.30;11.65;;;;;;;5.30;87.28;101219.63;5039960;28;19927;-75
2022/12/05 04:25:31;;;;;;;30.63;12.35;;;;;;;5.22;87.56;101232.78;5052148;28;20051;-75
2022/12/05 04:28:05;;;;;;;26.02;12.05;;;;;;;5.27;87.48;101224.91;5052106;28;20044;-75
2022/12/05 04:30:36;;;;;;;32.05;12.68;;;;;;;5.30;87.59;101220.50;5039080;28;20048;-75
2022/12/05 04:33:09;;;;;;;29.83;12.02;;;;;;;5.15;88.34;101220.81;5040444;28;20492;-75
2022/12/05 04:35:43;;;;;;;31.73;12.48;;;;;;;5.08;88.53;101224.44;5035452;28;20044;-75
2022/12/05 04:38:15;;;;;;;29.13;12.38;;;;;;;5.17;88.48;101219.06;5031356;28;20053;-75
2022/12/05 04:40:49;;;;;;;23.73;11.18;;;;;;;5.12;88.04;101210.50;5022065;28;20493;-75
2022/12/05 04:43:17;;;;;;;29.48;11.85;;;;;;;5.29;87.71;101212.72;5032000;28;20045;-75
2022/12/05 04:45:44;;;;;;;26.75;11.75;;;;;;;5.20;87.80;101218.13;5031954;28;20489;-74
2022/12/05 04:48:14;;;;;;;26.45;11.50;;;;;;;5.24;87.91;101217.19;5049132;28;20049;-74
2022/12/05 04:50:46;;;;;;;26.58;11.32;;;;;;;5.34;87.26;101213.47;5039799;28;20068;-74
2022/12/05 04:53:14;;;;;;;30.15;10.95;;;;;;;5.24;87.70;101212.84;5031686;28;20143;-74
2022/12/05 04:55:46;;;;;;;24.33;10.73;;;;;;;5.21;87.29;101214.66;5054204;28;20441;-74
2022/12/05 04:58:16;;;;;;;23.93;11.17;;;;;;;5.27;87.38;101219.72;5055233;28;20524;-74
2022/12/05 05:00:50;;;;;;;25.95;10.88;;;;;;;5.17;88.19;101223.41;5041229;28;20070;-74
2022/12/05 05:03:21;;;;;;;23.60;10.57;;;;;;;5.16;87.99;101212.16;5053357;28;20043;-74
2022/12/05 05:05:52;;;;;;;20.85;10.02;;;;;;;5.24;87.75;101217.19;5060174;28;20067;-75
2022/12/05 05:08:21;;;;;;;29.58;11.88;;;;;;;5.22;87.69;101212.00;5051501;28;20040;-74
2022/12/05 05:11:01;;;;;;;42.20;18.95;;;;;;;5.24;87.81;101224.97;5050743;28;20064;-74
2022/12/05 05:13:27;;;;;;;49.90;22.30;;;;;;;5.37;87.26;101216.00;5040575;28;20481;-74
2022/12/05 05:15:54;;;;;;;52.30;24.25;;;;;;;5.45;86.87;101219.28;5050501;28;20060;-74
2022/12/05 05:18:20;;;;;;;59.75;27.08;;;;;;;5.52;86.73;101215.66;5050231;28;20377;-73
2022/12/05 05:20:47;;;;;;;48.83;22.65;;;;;;;5.43;86.95;101222.81;5040589;28;20417;-73
2022/12/05 05:23:14;;;;;;;38.00;18.75;;;;;;;5.53;86.48;101214.78;5050641;28;20064;-73
2022/12/05 05:25:41;;;;;;;29.77;15.43;;;;;;;5.48;86.69;101210.53;5051003;28;20052;-73
2022/12/05 05:28:07;;;;;;;27.08;13.82;;;;;;;5.54;86.44;101218.22;5040885;28;20048;-73
2022/12/05 05:30:34;;;;;;;21.50;10.95;;;;;;;5.47;86.67;101220.09;5049993;28;20055;-72
2022/12/05 05:33:01;;;;;;;22.90;10.85;;;;;;;5.39;86.76;101219.44;5050845;28;20049;-73
2022/12/05 05:35:27;;;;;;;21.80;9.80;;;;;;;5.18;87.24;101220.75;5040644;28;20044;-73
2022/12/05 05:37:54;;;;;;;24.73;10.02;;;;;;;5.44;87.03;101227.97;5050576;28;20064;-73
2022/12/05 05:40:22;;;;;;;19.33;9.80;;;;;;;5.60;86.13;101221.53;5050252;28;20123;-72
2022/12/05 05:42:50;;;;;;;19.35;9.13;;;;;;;5.68;85.99;101226.56;5041046;28;20040;-72
2022/12/05 05:45:17;;;;;;;22.70;9.55;;;;;;;5.66;86.19;101223.13;5050403;28;20068;-72
2022/12/05 05:47:43;;;;;;;20.25;9.25;;;;;;;5.63;85.65;101223.19;5050336;28;20053;-72
2022/12/05 05:50:11;;;;;;;20.50;9.07;;;;;;;5.68;85.71;101226.56;5039715;28;20048;-72
2022/12/05 05:52:38;;;;;;;23.77;9.63;;;;;;;5.69;85.56;101239.50;5050054;28;20510;-72
2022/12/05 05:55:06;;;;;;;18.90;8.68;;;;;;;5.75;85.47;101239.38;5050516;28;20048;-72
2022/12/05 05:57:34;;;;;;;18.85;9.13;;;;;;;5.67;85.24;101236.09;5040297;28;20095;-71
2022/12/05 06:00:01;;;;;;;21.58;10.18;;;;;;;5.80;84.97;101240.09;5048976;28;20040;-71
2022/12/05 06:02:32;;;;;;;22.73;10.45;;;;;;;5.72;84.95;101239.47;5056822;28;20094;-72
2022/12/05 06:04:58;;;;;;;19.90;10.18;;;;;;;5.82;84.94;101233.13;5047865;28;20036;-71
2022/12/05 06:07:25;;;;;;;23.85;10.93;;;;;;;5.80;85.07;101232.31;5049701;28;20440;-71
2022/12/05 06:09:51;;;;;;;23.88;11.45;;;;;;;5.73;85.19;101238.56;5049772;28;20492;-71
2022/12/05 06:12:18;;;;;;;22.92;10.30;;;;;;;5.85;84.99;101237.41;5040056;28;20535;-71
2022/12/05 06:14:47;;;;;;;20.08;9.98;;;;;;;5.73;84.88;101235.09;5049410;28;20048;-71
2022/12/05 06:17:13;;;;;;;22.27;10.68;;;;;;;5.81;84.79;101240.97;5042745;28;20044;-71
2022/12/05 06:19:40;;;;;;;23.63;11.65;;;;;;;5.75;85.10;101243.72;5041124;28;20048;-70
2022/12/05 06:22:07;;;;;;;22.95;10.63;;;;;;;5.73;85.13;101238.56;5059885;28;20495;-70
2022/12/05 06:24:33;;;;;;;25.60;11.05;;;;;;;5.73;85.33;101241.16;5070618;28;20132;-70
2022/12/05 06:26:59;;;;;;;21.85;10.52;;;;;;;5.67;85.32;101243.06;5040273;28;20052;-70
2022/12/05 06:29:26;;;;;;;22.58;11.77;;;;;;;5.68;85.54;101252.56;5049146;28;20052;-70
2022/12/05 06:31:54;;;;;;;26.17;11.05;;;;;;;5.72;85.38;101236.88;5050095;28;20049;-70
2022/12/05 06:34:20;;;;;;;21.67;10.57;;;;;;;5.60;85.79;101244.94;5039376;28;20048;-70
2022/12/05 06:36:47;;;;;;;23.63;9.77;;;;;;;5.55;85.91;101236.38;5049025;28;20044;-70
2022/12/05 06:39:13;;;;;;;25.95;10.60;;;;;;;5.57;85.65;101246.75;5048950;28;20052;-68
2022/12/05 06:41:39;;;;;;;22.42;10.75;;;;;;;5.64;85.74;101241.38;5038627;28;20048;-68
2022/12/05 06:44:06;;;;;;;19.98;9.98;;;;;;;5.76;85.44;101253.25;5049253;28;20412;-68
2022/12/05 06:46:32;;;;;;;20.52;9.88;;;;;;;5.82;85.39;101255.69;5049342;28;20412;-68
2022/12/05 06:49:01;;;;;;;20.10;9.05;;;;;;;5.70;85.75;101259.44;5038669;28;20532;-68
2022/12/05 06:51:27;;;;;;;22.17;10.02;;;;;;;5.73;85.61;101254.16;5048749;28;20519;-67
2022/12/05 06:53:55;;;;;;;20.70;9.88;;;;;;;5.78;85.54;101254.06;5049796;28;20476;-67
2022/12/05 06:56:21;;;;;;;22.83;10.35;;;;;;;5.81;85.16;101254.84;5039361;28;20068;-67
2022/12/05 06:58:51;;;;;;;19.92;9.18;;;;;;;5.92;85.09;101264.16;5048853;28;20071;-67
2022/12/05 07:01:37;;;;;;;22.23;10.05;;;;;;;5.89;85.17;101270.31;5048653;28;20052;-67
2022/12/05 07:04:07;;;;;;;22.83;9.45;;;;;;;5.88;84.85;101258.19;5028272;28;20048;-67
2022/12/05 07:06:35;;;;;;;20.90;9.60;;;;;;;5.78;85.41;101259.25;5029500;28;20048;-67
2022/12/05 07:09:02;;;;;;;20.65;8.65;;;;;;;5.71;85.43;101266.38;5019955;28;20048;-67
2022/12/05 07:11:28;;;;;;;21.48;8.73;;;;;;;5.83;85.37;101260.03;5029477;28;20045;-67
2022/12/05 07:13:55;;;;;;;20.70;9.98;;;;;;;5.81;85.44;101272.19;5029976;28;20057;-67
2022/12/05 07:16:22;;;;;;;17.35;8.85;;;;;;;5.78;85.15;101269.66;5020312;28;20064;-66
2022/12/05 07:18:49;;;;;;;19.15;9.45;;;;;;;5.55;86.17;101269.34;5028296;28;20651;-65
2022/12/05 07:21:19;;;;;;;20.33;9.63;;;;;;;5.72;85.96;101273.28;5028970;28;20485;-65
2022/12/05 07:23:46;;;;;;;19.58;10.38;;;;;;;5.81;85.27;101267.00;5035123;28;20297;-65
2022/12/05 07:26:15;;;;;;;21.35;9.40;;;;;;;5.77;85.51;101273.16;5047921;28;20121;-66
2022/12/05 07:28:42;;;;;;;20.88;9.10;;;;;;;5.74;85.41;101278.44;5042298;28;20040;-65
2022/12/05 07:31:10;;;;;;;20.65;8.85;;;;;;;5.61;86.32;101277.88;5043182;28;20693;-65
2022/12/05 07:33:37;;;;;;;20.50;9.07;;;;;;;5.82;85.78;101277.38;5047306;28;20416;-65
2022/12/05 07:36:06;;;;;;;24.58;10.10;;;;;;;5.87;85.43;101275.53;5037073;28;20045;-65
2022/12/05 07:38:34;;;;;;;23.85;9.35;;;;;;;5.88;85.17;101279.00;5048517;28;20041;-65
2022/12/05 07:41:05;;;;;;;19.42;9.18;;;;;;;6.01;85.25;101275.22;5047717;28;20044;-65
2022/12/05 07:43:31;;;;;;;21.15;9.45;;;;;;;5.88;85.54;101274.66;5038253;28;20051;-65
2022/12/05 07:46:02;;;;;;;22.35;9.13;;;;;;;6.02;84.97;101281.28;5047582;28;20063;-65
2022/12/05 07:48:28;;;;;;;20.60;9.15;;;;;;;6.05;84.80;101276.00;5024873;28;20481;-65
2022/12/05 07:50:59;;;;;;;18.10;9.38;;;;;;;5.98;85.19;101277.91;5014696;28;20068;-65
2022/12/05 07:53:25;;;;;;;19.65;9.48;;;;;;;6.05;85.28;101279.47;5028123;28;20044;-65
2022/12/05 07:55:53;;;;;;;19.20;9.27;;;;;;;6.07;85.09;101274.19;5021236;28;20049;-65
2022/12/05 07:58:20;;;;;;;20.58;9.60;;;;;;;6.16;84.65;101271.38;5010885;28;20045;-65
2022/12/05 08:00:46;;;;;;;21.63;10.43;;;;;;;6.03;85.18;101270.81;5027388;28;20052;-65
2022/12/05 08:03:13;;;;;;;17.90;9.45;;;;;;;6.01;85.36;101264.81;5042456;28;20045;-65
2022/12/05 08:05:39;;;;;;;23.98;10.85;;;;;;;6.05;85.33;101270.78;5019147;28;20041;-65
2022/12/05 08:08:06;;;;;;;20.95;10.13;;;;;;;6.15;84.65;101280.94;5027863;28;20052;-66
2022/12/05 08:10:34;;;;;;;21.55;10.25;;;;;;;6.29;84.31;101280.59;5034411;28;20476;-65
2022/12/05 08:13:01;;;;;;;25.58;10.85;;;;;;;6.26;84.22;101281.53;5026278;28;20049;-65
2022/12/05 08:15:28;;;;;;;29.20;11.70;;;;;;;6.08;84.91;101276.78;5027402;28;20060;-65
2022/12/05 08:17:54;;;;;;;24.85;11.15;;;;;;;6.10;84.98;101288.00;5027587;28;20485;-65
2022/12/05 08:20:21;;;;;;;24.45;10.07;;;;;;;6.06;85.34;101277.72;5017620;28;20409;-65
2022/12/05 08:22:47;;;;;;;23.20;10.73;;;;;;;6.05;84.83;101281.22;5027949;28;20666;-65
2022/12/05 08:25:14;;;;;;;19.67;9.90;;;;;;;6.16;84.96;101277.44;5042423;28;20074;-65
2022/12/05 08:27:40;;;;;;;23.48;10.77;;;;;;;6.20;84.83;101284.28;5035566;28;20044;-65
2022/12/05 08:30:09;;;;;;;23.48;9.88;;;;;;;6.29;84.78;101289.25;5027079;28;20048;-65
2022/12/05 08:32:35;;;;;;;23.00;10.38;;;;;;;6.36;84.40;101280.38;5030038;28;20051;-65
2022/12/05 08:35:02;;;;;;;24.95;10.93;;;;;;;6.44;84.24;101287.16;5041265;28;20052;-65
2022/12/05 08:37:28;;;;;;;26.70;11.30;;;;;;;6.48;84.33;101288.78;5030448;28;20072;-65
2022/12/05 08:39:54;;;;;;;29.15;11.88;;;;;;;6.16;85.56;101281.81;5053698;28;20400;-64
2022/12/05 08:42:21;;;;;;;24.98;10.90;;;;;;;6.18;85.69;101290.41;5042898;28;20488;-64
2022/12/05 08:44:49;;;;;;;21.15;10.50;;;;;;;6.13;85.83;101300.97;5047483;28;20496;-64
2022/12/05 08:47:17;;;;;;;23.08;10.95;;;;;;;6.19;85.80;101295.59;5048152;28;20064;-64
2022/12/05 08:49:44;;;;;;;27.40;11.55;;;;;;;6.40;85.23;101299.41;5041454;28;20056;-64
2022/12/05 08:52:10;;;;;;;27.85;11.18;;;;;;;6.41;84.87;101298.50;5064675;28;20530;-64
2022/12/05 08:54:37;;;;;;;27.48;11.63;;;;;;;6.41;84.84;101300.25;5051173;28;20045;-64
2022/12/05 08:57:03;;;;;;;29.05;11.73;;;;;;;6.48;84.89;101300.06;5040380;28;20500;-64
2022/12/05 08:59:30;;;;;;;26.52;11.15;;;;;;;6.43;84.98;101301.91;5050554;28;20048;-65
2022/12/05 09:01:56;;;;;;;24.55;12.07;;;;;;;6.54;84.31;101302.50;5056274;28;20078;-65
2022/12/05 09:04:24;;;;;;;30.30;10.98;;;;;;;6.50;84.68;101297.44;5050112;28;20050;-64
2022/12/05 09:06:51;;;;;;;26.10;11.52;;;;;;;6.49;84.69;101309.59;5070633;28;20476;-64
2022/12/05 09:09:17;;;;;;;26.92;12.40;;;;;;;6.45;84.95;101310.56;5070603;28;20515;-64
2022/12/05 09:11:47;;;;;;;27.77;10.75;;;;;;;6.53;84.11;101303.41;5060247;28;20385;-64
2022/12/05 09:14:15;;;;;;;26.40;11.68;;;;;;;6.27;84.84;101306.69;5070472;28;20055;-64
2022/12/05 09:16:44;;;;;;;27.63;12.15;;;;;;;6.42;84.99;101299.38;5055845;28;20051;-64
2022/12/05 09:19:12;;;;;;;29.38;12.82;;;;;;;6.43;84.90;101307.13;5038765;28;20052;-64
2022/12/05 09:21:41;;;;;;;24.25;11.88;;;;;;;6.49;84.76;101301.78;5049793;28;20071;-64
2022/12/05 09:24:08;;;;;;;23.98;11.57;;;;;;;6.52;84.59;101301.69;5050403;28;20041;-64
2022/12/05 09:26:34;;;;;;;25.45;11.50;;;;;;;6.38;85.07;101301.19;5040875;28;20319;-64
2022/12/05 09:29:02;;;;;;;26.60;11.60;;;;;;;6.38;84.98;101296.00;5048928;28;20497;-63
2022/12/05 09:31:29;;;;;;;31.10;12.73;;;;;;;6.50;84.52;101298.28;5049171;28;20064;-63
2022/12/05 09:33:55;;;;;;;27.20;11.40;;;;;;;6.50;84.26;101298.28;5044901;28;20054;-63
2022/12/05 09:36:24;;;;;;;28.50;11.68;;;;;;;6.44;85.05;101297.56;5061387;28;20047;-63
2022/12/05 09:38:53;;;;;;;31.27;12.23;;;;;;;6.56;84.52;101303.31;5050211;28;20052;-63
2022/12/05 09:45:03;;;;;;;30.25;12.05;;;;;;;6.49;84.56;101293.97;5007178;28;20242;-63
2022/12/05 09:47:36;;;;;;;29.30;12.15;;;;;;;6.32;85.35;101294.38;4992939;28;20208;-63
2022/12/05 09:50:15;;;;;;;25.30;11.93;;;;;;;6.48;85.03;101294.00;5035042;28;20048;-63
2022/12/05 09:52:48;;;;;;;38.65;14.25;;;;;;;6.46;84.69;101299.25;5040748;28;20400;-63
2022/12/05 09:55:17;;;;;;;;;;;;;;;6.62;84.48;101294.47;5050869;28;20044;-63
2022/12/05 09:57:48;;;;;;;29.75;13.32;;;;;;;6.54;84.40;101289.47;5050509;28;19931;-63
2022/12/05 10:00:15;;;;;;;34.83;15.43;;;;;;;6.61;84.49;101290.19;5047418;28;20482;-63
2022/12/05 10:02:51;;;;;;;37.25;18.08;;;;;;;6.66;84.12;101283.06;5056884;28;20051;-63
2022/12/05 10:05:25;;;;;;;36.92;17.55;;;;;;;6.70;83.71;101279.50;5043962;28;20040;-63
2022/12/05 10:07:57;;;;;;;42.50;19.38;;;;;;;6.42;84.67;101279.38;5049754;28;20056;-63
2022/12/05 10:10:45;;;;;;;33.17;15.38;;;;;;;6.60;84.17;101278.03;5049317;28;20056;-63
2022/12/05 10:13:30;;;;;;;28.88;12.07;;;;;;;6.72;84.24;101281.19;5049377;28;20052;-63
2022/12/05 10:16:00;;;;;;;28.40;12.27;;;;;;;6.81;83.98;101278.31;5040223;28;20049;-63
2022/12/05 10:18:32;;;;;;;33.55;13.25;;;;;;;6.84;83.93;101283.44;5049472;28;20051;-63
2022/12/05 10:21:03;;;;;;;32.20;12.98;;;;;;;6.82;84.36;101280.03;5039711;28;20048;-63
2022/12/05 10:23:35;;;;;;;32.72;13.45;;;;;;;6.82;84.16;101277.41;5048886;28;20060;-63
2022/12/05 10:26:08;;;;;;;32.53;15.40;;;;;;;6.79;84.51;101282.72;5049789;28;20044;-63
2022/12/05 10:28:39;;;;;;;33.63;15.48;;;;;;;6.91;84.02;101278.06;5039946;28;20051;-63
2022/12/05 10:31:09;;;;;;;34.23;15.73;;;;;;;6.99;83.74;101276.94;5048739;28;20048;-64
2022/12/05 10:33:39;;;;;;;36.35;14.82;;;;;;;6.74;84.49;101282.00;5039497;28;20076;-64
2022/12/05 10:36:12;;;;;;;36.67;14.43;;;;;;;6.72;84.37;101283.78;5063659;28;20238;-63
2022/12/05 10:38:39;;;;;;;32.75;13.60;;;;;;;6.90;84.37;101286.78;5048853;28;20408;-63
2022/12/05 10:41:09;;;;;;;30.90;13.40;;;;;;;6.67;84.88;101290.88;5038924;28;20044;-63
2022/12/05 10:43:39;;;;;;;30.45;13.50;;;;;;;6.68;84.62;101287.38;5046410;28;20059;-63
2022/12/05 10:46:06;;;;;;;27.30;13.25;;;;;;;6.78;84.63;101287.97;5048533;28;20044;-63
2022/12/05 10:48:37;;;;;;;28.35;13.77;;;;;;;6.74;84.63;101284.59;5046033;28;20063;-64
2022/12/05 10:51:05;;;;;;;40.13;12.75;;;;;;;6.66;84.89;101286.53;5048372;28;20467;-63
2022/12/05 10:53:39;;;;;;;31.17;13.20;;;;;;;6.87;84.23;101284.25;5038086;28;20059;-64
2022/12/05 10:56:37;;;;;;;26.30;11.43;;;;;;;6.88;84.01;101291.16;5064775;28;20531;-64
2022/12/05 10:59:05;;;;;;;27.48;11.45;;;;;;;6.81;84.14;101296.56;5068419;28;20040;-63
2022/12/05 11:01:32;;;;;;;26.30;11.23;;;;;;;6.56;84.48;101290.31;5046505;28;20416;-63
2022/12/05 11:04:01;;;;;;;25.10;10.75;;;;;;;6.45;85.87;101301.88;5042056;28;20060;-63
2022/12/05 11:06:29;;;;;;;28.70;11.95;;;;;;;6.18;86.47;101299.09;5047571;28;20044;-63
2022/12/05 11:08:58;;;;;;;29.70;11.43;;;;;;;6.60;85.08;101291.94;5047322;28;20049;-63
2022/12/05 11:11:28;;;;;;;25.85;12.05;;;;;;;6.86;83.72;101293.84;5036332;28;20055;-63
2022/12/05 11:13:56;;;;;;;29.00;12.73;;;;;;;6.69;83.89;101289.06;5048170;28;20126;-63
2022/12/05 11:16:25;;;;;;;26.75;12.40;;;;;;;6.77;83.57;101287.09;5047775;28;20404;-63
2022/12/05 11:18:52;;;;;;;27.90;12.52;;;;;;;6.82;83.68;101274.81;5037138;28;20543;-63
2022/12/05 11:21:19;;;;;;;27.88;12.23;;;;;;;6.96;83.66;101278.78;5047532;28;20048;-63
2022/12/05 11:23:46;;;;;;;27.45;12.55;;;;;;;6.28;86.18;101273.69;5047871;28;20055;-63
2022/12/05 11:26:19;;;;;;;26.63;12.48;;;;;;;6.04;87.17;101277.75;5038579;28;20049;-63
2022/12/05 11:28:47;;;;;;;29.45;13.63;;;;;;;6.06;87.76;101281.16;5046855;28;20055;-63
2022/12/05 11:31:25;;;;;;;30.45;12.25;;;;;;;6.39;86.47;101284.69;5046788;28;20052;-63
2022/12/05 11:34:04;;;;;;;26.92;13.00;;;;;;;5.75;88.90;101277.56;5047723;28;20123;-63
2022/12/05 11:36:39;;;;;;;33.65;13.27;;;;;;;5.62;89.98;101286.50;5055651;28;20048;-63